createdAt,value
2018-08-13T00:00:46.320Z,0.00
2018-08-13T00:01:48.296Z,0.00
2018-08-13T00:02:47.317Z,0.00
2018-08-13T00:03:53.330Z,0.00
2018-08-13T00:04:46.804Z,0.00
2018-08-13T00:05:46.907Z,0.00
2018-08-13T00:06:47.030Z,0.00
2018-08-13T00:07:47.829Z,0.00
2018-08-13T00:08:47.822Z,0.00
2018-08-13T00:09:47.294Z,0.00
2018-08-13T00:10:48.320Z,0.00
2018-08-13T00:11:48.320Z,0.00
2018-08-13T00:12:48.318Z,0.00
2018-08-13T00:13:48.320Z,0.00
2018-08-13T00:14:47.918Z,0.00
2018-08-13T00:15:50.819Z,0.00
2018-08-13T00:17:09.821Z,0.00
2018-08-13T00:18:10.818Z,0.00
2018-08-13T00:19:16.321Z,0.00
2018-08-13T00:19:48.549Z,0.00
2018-08-13T00:20:49.319Z,0.00
2018-08-13T00:21:49.320Z,0.00
2018-08-13T00:22:49.820Z,0.00
2018-08-13T00:23:49.823Z,0.00
2018-08-13T00:24:49.163Z,0.00
2018-08-13T00:25:49.820Z,0.00
2018-08-13T00:27:04.319Z,0.00
2018-08-13T00:27:50.326Z,0.00
2018-08-13T00:28:50.323Z,0.00
2018-08-13T00:29:49.831Z,0.00
2018-08-13T00:31:11.819Z,0.00
2018-08-13T00:31:50.819Z,0.00
2018-08-13T00:32:50.817Z,0.00
2018-08-13T00:33:50.293Z,0.00
2018-08-13T00:34:50.396Z,0.00
2018-08-13T00:37:23.180Z,0.00
2018-08-13T00:38:23.188Z,0.00
2018-08-13T00:39:23.188Z,0.00
2018-08-13T00:40:29.187Z,0.00
2018-08-13T00:42:54.954Z,0.00
2018-08-13T00:43:54.964Z,0.00
2018-08-13T00:44:54.969Z,0.00
2018-08-13T00:45:56.943Z,0.00
2018-08-13T00:46:55.460Z,0.00
2018-08-13T00:47:55.460Z,0.00
2018-08-13T00:48:55.462Z,0.00
2018-08-13T00:49:55.961Z,0.00
2018-08-13T00:51:09.960Z,0.00
2018-08-13T00:53:16.403Z,0.00
2018-08-13T00:55:33.650Z,0.00
2018-08-13T00:56:29.590Z,0.00
2018-08-13T00:57:27.660Z,0.00
2018-08-13T00:58:51.165Z,0.00
2018-08-13T00:59:48.372Z,0.00
2018-08-13T01:00:27.473Z,0.00
2018-08-13T01:01:32.590Z,0.00
2018-08-13T01:02:31.590Z,0.00
2018-08-13T01:03:28.663Z,0.00
2018-08-13T01:04:42.656Z,0.00
2018-08-13T01:05:30.669Z,0.00
2018-08-13T01:06:49.656Z,0.00
2018-08-13T01:07:52.156Z,0.00
2018-08-13T01:08:50.160Z,0.00
2018-08-13T01:09:49.487Z,0.00
2018-08-13T01:10:29.156Z,0.00
2018-08-13T01:11:28.631Z,0.00
2018-08-13T01:12:29.658Z,0.00
2018-08-13T01:13:29.663Z,0.00
2018-08-13T01:14:29.657Z,0.00
2018-08-13T01:15:29.660Z,0.00
2018-08-13T01:16:51.157Z,0.00
2018-08-13T01:17:51.156Z,0.00
2018-08-13T01:18:30.159Z,0.00
2018-08-13T01:19:30.159Z,0.00
2018-08-13T01:20:30.658Z,0.00
2018-08-13T01:21:30.657Z,0.00
2018-08-13T01:22:30.678Z,0.00
2018-08-13T01:23:30.661Z,0.00
2018-08-13T01:24:31.155Z,0.00
2018-08-13T01:25:31.158Z,0.00
2018-08-13T01:26:31.157Z,0.00
2018-08-13T01:27:31.159Z,0.00
2018-08-13T01:28:30.755Z,0.00
2018-08-13T01:29:31.658Z,0.00
2018-08-13T01:30:45.659Z,0.00
2018-08-13T01:31:31.657Z,0.00
2018-08-13T01:32:32.157Z,0.00
2018-08-13T01:33:32.164Z,0.00
2018-08-13T01:34:32.184Z,0.00
2018-08-13T01:35:32.656Z,0.00
2018-08-13T01:36:53.656Z,0.00
2018-08-13T01:37:31.885Z,0.00
2018-08-13T01:38:32.652Z,0.00
2018-08-13T01:39:32.656Z,0.00
2018-08-13T01:40:54.163Z,0.00
2018-08-13T01:41:33.160Z,0.00
2018-08-13T01:42:32.505Z,0.00
2018-08-13T01:43:33.164Z,0.00
2018-08-13T01:44:32.763Z,0.00
2018-08-13T01:45:32.865Z,0.00
2018-08-13T01:46:33.656Z,0.00
2018-08-13T01:47:33.004Z,0.00
2018-08-13T01:48:33.657Z,0.00
2018-08-13T01:49:34.157Z,0.00
2018-08-13T01:50:34.164Z,0.00
2018-08-13T01:51:34.157Z,0.00
2018-08-13T01:52:55.155Z,0.00
2018-08-13T01:53:34.666Z,0.00
2018-08-13T01:54:33.890Z,0.00
2018-08-13T01:55:57.092Z,0.00
2018-08-13T01:56:34.654Z,0.00
2018-08-13T01:57:55.260Z,0.00
2018-08-13T01:58:35.158Z,0.00
2018-08-13T01:59:35.156Z,0.00
2018-08-13T02:00:35.157Z,0.00
2018-08-13T02:01:35.703Z,0.00
2018-08-13T02:02:58.655Z,0.00
2018-08-13T02:03:34.886Z,0.00
2018-08-13T02:04:35.663Z,0.00
2018-08-13T02:05:35.655Z,0.00
2018-08-13T02:06:57.156Z,0.00
2018-08-13T02:07:36.154Z,0.00
2018-08-13T02:08:39.093Z,0.00
2018-08-13T02:09:36.155Z,0.00
2018-08-13T02:10:57.732Z,0.00
2018-08-13T02:11:35.834Z,0.00
2018-08-13T02:12:57.654Z,0.00
2018-08-13T02:13:52.155Z,0.00
2018-08-13T02:14:57.112Z,0.00
2018-08-13T02:15:40.089Z,0.00
2018-08-13T02:16:51.162Z,0.00
2018-08-13T02:17:37.155Z,0.00
2018-08-13T02:18:37.155Z,0.00
2018-08-13T02:19:53.130Z,0.00
2018-08-13T02:20:36.855Z,0.00
2018-08-13T02:21:38.652Z,0.00
2018-08-13T02:22:57.983Z,0.00
2018-08-13T02:23:37.655Z,0.00
2018-08-13T02:25:01.168Z,0.00
2018-08-13T02:27:09.375Z,0.00
2018-08-13T02:28:09.379Z,0.00
2018-08-13T02:29:09.379Z,0.00
2018-08-13T02:30:09.877Z,0.00
2018-08-13T02:31:09.884Z,0.00
2018-08-13T02:32:30.883Z,0.00
2018-08-13T02:33:09.351Z,0.00
2018-08-13T02:34:32.844Z,0.00
2018-08-13T02:35:09.581Z,0.00
2018-08-13T02:36:10.379Z,0.00
2018-08-13T02:37:10.380Z,0.00
2018-08-13T02:38:10.380Z,0.00
2018-08-13T02:39:11.412Z,0.00
2018-08-13T02:40:10.072Z,0.00
2018-08-13T02:41:10.878Z,0.00
2018-08-13T02:42:10.230Z,0.00
2018-08-13T02:43:10.879Z,0.00
2018-08-13T02:44:25.382Z,0.00
2018-08-13T02:45:11.379Z,0.00
2018-08-13T02:46:11.387Z,0.00
2018-08-13T02:47:11.878Z,0.00
2018-08-13T02:48:32.879Z,0.00
2018-08-13T02:49:11.879Z,0.00
2018-08-13T02:50:11.228Z,0.00
2018-08-13T02:51:11.881Z,0.00
2018-08-13T02:52:12.387Z,0.00
2018-08-13T02:53:12.380Z,0.00
2018-08-13T02:54:12.381Z,0.00
2018-08-13T02:55:12.378Z,0.00
2018-08-13T02:56:12.879Z,0.00
2018-08-13T02:57:12.879Z,0.00
2018-08-13T02:58:12.962Z,0.00
2018-08-13T02:59:12.352Z,0.00
2018-08-13T03:00:19.378Z,0.00
2018-08-13T03:01:12.602Z,0.00
2018-08-13T03:02:34.381Z,0.00
2018-08-13T03:03:13.385Z,0.00
2018-08-13T03:04:13.879Z,0.00
2018-08-13T03:05:13.879Z,0.00
2018-08-13T03:06:13.885Z,0.00
2018-08-13T03:07:13.362Z,0.00
2018-08-13T03:08:14.379Z,0.00
2018-08-13T03:09:35.378Z,0.00
2018-08-13T03:10:14.378Z,0.00
2018-08-13T03:11:14.378Z,0.00
2018-08-13T03:12:14.883Z,0.00
2018-08-13T03:13:14.878Z,0.00
2018-08-13T03:14:14.878Z,0.00
2018-08-13T03:15:15.876Z,0.00
2018-08-13T03:16:15.377Z,0.00
2018-08-13T03:17:15.377Z,0.00
2018-08-13T03:18:15.378Z,0.00
2018-08-13T03:19:15.379Z,0.00
2018-08-13T03:20:15.872Z,0.00
2018-08-13T03:21:15.876Z,0.00
2018-08-13T03:22:15.877Z,0.00
2018-08-13T03:23:15.883Z,0.00
2018-08-13T03:24:37.378Z,0.00
2018-08-13T03:25:15.613Z,0.00
2018-08-13T03:26:37.377Z,0.00
2018-08-13T03:27:16.378Z,0.00
2018-08-13T03:28:16.877Z,0.00
2018-08-13T03:30:47.519Z,0.00
2018-08-13T03:31:48.279Z,0.00
2018-08-13T03:32:48.270Z,0.00
2018-08-13T03:33:48.761Z,0.00
2018-08-13T03:34:47.984Z,0.00
2018-08-13T03:35:48.761Z,0.00
2018-08-13T03:36:48.761Z,0.00
2018-08-13T03:37:48.359Z,4.00
2018-08-13T03:38:49.259Z,0.00
2018-08-13T03:39:48.608Z,0.00
2018-08-13T03:40:48.705Z,4.00
2018-08-13T03:42:16.761Z,0.00
2018-08-13T03:42:49.760Z,4.00
2018-08-13T03:43:49.763Z,4.00
2018-08-13T03:44:49.114Z,8.00
2018-08-13T03:45:49.758Z,8.00
2018-08-13T03:46:49.359Z,8.00
2018-08-13T03:47:50.263Z,8.00
2018-08-13T03:48:51.259Z,8.00
2018-08-13T03:49:49.732Z,12.00
2018-08-13T03:50:50.760Z,12.00
2018-08-13T03:51:50.763Z,20.00
2018-08-13T03:52:50.772Z,24.00
2018-08-13T03:53:50.311Z,28.00
2018-08-13T03:54:50.380Z,36.00
2018-08-13T03:55:53.261Z,40.00
2018-08-13T03:56:51.262Z,48.00
2018-08-13T03:57:51.261Z,52.00
2018-08-13T03:58:50.863Z,60.00
2018-08-13T03:59:50.977Z,64.00
2018-08-13T04:00:51.760Z,68.00
2018-08-13T04:01:51.759Z,68.00
2018-08-13T04:02:52.260Z,72.00
2018-08-13T04:03:51.483Z,76.00
2018-08-13T04:04:53.692Z,80.00
2018-08-13T04:05:52.261Z,84.00
2018-08-13T04:06:52.760Z,88.00
2018-08-13T04:07:52.759Z,92.00
2018-08-13T04:08:52.763Z,100.00
2018-08-13T04:09:52.762Z,104.00
2018-08-13T04:10:53.260Z,112.00
2018-08-13T04:11:59.259Z,116.00
2018-08-13T04:12:52.618Z,124.00
2018-08-13T04:13:52.711Z,132.00
2018-08-13T04:14:53.759Z,140.00
2018-08-13T04:15:53.759Z,144.00
2018-08-13T04:16:55.226Z,152.00
2018-08-13T04:17:53.078Z,160.00
2018-08-13T04:18:53.174Z,164.00
2018-08-13T04:19:54.259Z,172.00
2018-08-13T04:20:54.259Z,180.00
2018-08-13T04:21:54.259Z,184.00
2018-08-13T04:22:54.314Z,192.00
2018-08-13T04:23:54.266Z,196.00
2018-08-13T04:24:54.793Z,200.00
2018-08-13T04:25:57.191Z,208.00
2018-08-13T04:26:55.758Z,216.00
2018-08-13T04:27:54.236Z,228.00
2018-08-13T04:28:59.693Z,236.00
2018-08-13T04:29:55.258Z,244.00
2018-08-13T04:31:09.270Z,256.00
2018-08-13T04:31:57.194Z,264.00
2018-08-13T04:32:56.692Z,272.00
2018-08-13T04:33:57.757Z,276.00
2018-08-13T04:34:54.982Z,284.00
2018-08-13T04:37:27.304Z,316.00
2018-08-13T04:38:27.237Z,328.00
2018-08-13T04:39:27.235Z,340.00
2018-08-13T04:40:27.730Z,348.00
2018-08-13T04:41:27.731Z,356.00
2018-08-13T04:42:27.730Z,368.00
2018-08-13T04:43:27.730Z,376.00
2018-08-13T04:44:27.335Z,376.00
2018-08-13T04:45:30.230Z,368.00
2018-08-13T04:46:29.208Z,360.00
2018-08-13T04:47:28.230Z,372.00
2018-08-13T04:48:27.838Z,392.00
2018-08-13T04:49:30.170Z,404.00
2018-08-13T04:50:49.663Z,412.00
2018-08-13T04:51:28.153Z,408.00
2018-08-13T04:52:29.230Z,408.00
2018-08-13T04:53:49.308Z,404.00
2018-08-13T04:54:52.170Z,404.00
2018-08-13T04:57:21.607Z,428.00
2018-08-13T04:58:00.614Z,448.00
2018-08-13T04:59:00.172Z,460.00
2018-08-13T05:00:23.583Z,480.00
2018-08-13T05:01:00.306Z,500.00
2018-08-13T05:02:01.112Z,520.00
2018-08-13T05:03:01.114Z,544.00
2018-08-13T05:04:00.594Z,556.00
2018-08-13T05:05:03.618Z,592.00
2018-08-13T05:06:24.086Z,656.00
2018-08-13T05:07:22.572Z,680.00
2018-08-13T05:08:01.015Z,692.00
2018-08-13T05:09:01.609Z,716.00
2018-08-13T05:10:16.114Z,744.00
2018-08-13T05:11:01.345Z,752.00
2018-08-13T05:12:01.471Z,768.00
2018-08-13T05:13:02.114Z,812.00
2018-08-13T05:15:33.869Z,896.00
2018-08-13T05:16:33.873Z,920.00
2018-08-13T05:17:33.389Z,944.00
2018-08-13T05:18:55.380Z,976.00
2018-08-13T05:19:48.373Z,992.00
2018-08-13T05:20:48.373Z,1000.00
2018-08-13T05:21:34.373Z,1012.00
2018-08-13T05:22:41.805Z,1024.00
2018-08-13T05:23:34.873Z,1036.00
2018-08-13T05:24:34.881Z,1064.00
2018-08-13T05:25:34.355Z,1092.00
2018-08-13T05:26:37.372Z,1096.00
2018-08-13T05:27:41.372Z,1084.00
2018-08-13T05:28:55.724Z,1060.00
2018-08-13T05:29:35.373Z,1052.00
2018-08-13T05:30:35.875Z,1044.00
2018-08-13T05:31:37.305Z,1056.00
2018-08-13T05:32:36.824Z,1052.00
2018-08-13T05:33:35.872Z,1036.00
2018-08-13T05:34:36.378Z,1028.00
2018-08-13T05:35:42.373Z,1012.00
2018-08-13T05:36:50.376Z,1012.00
2018-08-13T05:37:36.466Z,1008.00
2018-08-13T05:38:50.372Z,1020.00
2018-08-13T05:39:36.381Z,1016.00
2018-08-13T05:40:57.873Z,1020.00
2018-08-13T05:41:36.100Z,1024.00
2018-08-13T05:42:36.872Z,1036.00
2018-08-13T05:43:37.840Z,1048.00
2018-08-13T05:44:39.326Z,1060.00
2018-08-13T05:45:57.553Z,1068.00
2018-08-13T05:46:37.374Z,1064.00
2018-08-13T05:47:39.807Z,1060.00
2018-08-13T05:48:37.375Z,1056.00
2018-08-13T05:49:51.875Z,1028.00
2018-08-13T05:52:09.272Z,976.00
2018-08-13T05:53:09.281Z,972.00
2018-08-13T05:55:47.038Z,1052.00
2018-08-13T05:56:42.040Z,1120.00
2018-08-13T05:57:40.515Z,1184.00
2018-08-13T05:58:41.543Z,1224.00
2018-08-13T05:59:42.475Z,1256.00
2018-08-13T06:00:41.552Z,1284.00
2018-08-13T06:01:41.055Z,1344.00
2018-08-13T06:02:42.018Z,1396.00
2018-08-13T06:03:42.044Z,1448.00
2018-08-13T06:04:42.042Z,1508.00
2018-08-13T06:05:42.042Z,1556.00
2018-08-13T06:07:03.541Z,1580.00
2018-08-13T06:07:42.542Z,1524.00
2018-08-13T06:08:56.543Z,1324.00
2018-08-13T06:09:42.021Z,1388.00
2018-08-13T06:10:58.474Z,1368.00
2018-08-13T06:11:57.043Z,1408.00
2018-08-13T06:12:43.067Z,1392.00
2018-08-13T06:13:43.051Z,1404.00
2018-08-13T06:15:04.544Z,1400.00
2018-08-13T06:16:03.750Z,1488.00
2018-08-13T06:17:03.832Z,1536.00
2018-08-13T06:17:42.939Z,1548.00
2018-08-13T06:18:44.043Z,1772.00
2018-08-13T06:20:05.093Z,1828.00
2018-08-13T06:20:43.182Z,1900.00
2018-08-13T06:21:43.312Z,2052.00
2018-08-13T06:22:44.052Z,2244.00
2018-08-13T06:23:43.522Z,2348.00
2018-08-13T06:24:44.570Z,2344.00
2018-08-13T06:25:49.974Z,2476.00
2018-08-13T06:26:43.858Z,2540.00
2018-08-13T06:27:44.547Z,2492.00
2018-08-13T06:28:44.551Z,2552.00
2018-08-13T06:29:46.474Z,2268.00
2018-08-13T06:30:46.475Z,1816.00
2018-08-13T06:31:45.046Z,1592.00
2018-08-13T06:32:45.041Z,1440.00
2018-08-13T06:33:45.542Z,1388.00
2018-08-13T06:34:45.542Z,1348.00
2018-08-13T06:36:12.542Z,1356.00
2018-08-13T06:38:37.423Z,1520.00
2018-08-13T06:39:16.538Z,1736.00
2018-08-13T06:40:23.179Z,2184.00
2018-08-13T06:41:40.670Z,2544.00
2018-08-13T06:42:40.669Z,2944.00
2018-08-13T06:43:44.699Z,3148.00
2018-08-13T06:44:40.628Z,3312.00
2018-08-13T06:45:18.170Z,3420.00
2018-08-13T06:46:18.174Z,3784.00
2018-08-13T06:47:41.170Z,3952.00
2018-08-13T06:48:17.647Z,3812.00
2018-08-13T06:49:24.671Z,3664.00
2018-08-13T06:50:32.673Z,3104.00
2018-08-13T06:51:22.102Z,2628.00
2018-08-13T06:52:20.103Z,2564.00
2018-08-13T06:53:18.216Z,2512.00
2018-08-13T06:54:18.315Z,2668.00
2018-08-13T06:55:40.170Z,2640.00
2018-08-13T06:56:18.524Z,2764.00
2018-08-13T06:57:21.170Z,2704.00
2018-08-13T06:58:33.670Z,2344.00
2018-08-13T06:59:42.671Z,2124.00
2018-08-13T07:00:25.671Z,1976.00
2018-08-13T07:01:21.129Z,1872.00
2018-08-13T07:02:20.191Z,1808.00
2018-08-13T07:03:19.307Z,1812.00
2018-08-13T07:04:20.171Z,1892.00
2018-08-13T07:05:19.520Z,1896.00
2018-08-13T07:06:20.170Z,1936.00
2018-08-13T07:07:35.668Z,1904.00
2018-08-13T07:08:20.674Z,1900.00
2018-08-13T07:09:20.675Z,1816.00
2018-08-13T07:10:20.141Z,1984.00
2018-08-13T07:11:44.103Z,2292.00
2018-08-13T07:13:52.555Z,2160.00
2018-08-13T07:14:52.558Z,1760.00
2018-08-13T07:15:52.564Z,1708.00
2018-08-13T07:16:52.164Z,1656.00
2018-08-13T07:17:52.251Z,1600.00
2018-08-13T07:18:53.063Z,1436.00
2018-08-13T07:20:08.062Z,1272.00
2018-08-13T07:20:53.988Z,1176.00
2018-08-13T07:21:52.661Z,1064.00
2018-08-13T07:24:45.878Z,756.00
2018-08-13T07:25:24.235Z,664.00
2018-08-13T07:26:24.892Z,588.00
2018-08-13T07:28:55.904Z,416.00
2018-08-13T07:29:56.031Z,344.00
2018-08-13T07:30:56.638Z,312.00
2018-08-13T07:32:03.134Z,320.00
2018-08-13T07:32:56.373Z,368.00
2018-08-13T07:34:21.575Z,480.00
2018-08-13T07:34:56.656Z,632.00
2018-08-13T07:35:56.765Z,768.00
2018-08-13T07:36:57.642Z,888.00
2018-08-13T07:37:57.636Z,904.00
2018-08-13T07:38:57.689Z,864.00
2018-08-13T07:39:57.242Z,844.00
2018-08-13T07:44:00.215Z,1368.00
2018-08-13T07:45:00.315Z,1384.00
2018-08-13T07:46:23.043Z,1316.00
2018-08-13T07:47:03.954Z,1216.00
2018-08-13T07:48:24.461Z,1176.00
2018-08-13T07:50:34.853Z,1312.00
2018-08-13T07:51:32.900Z,1384.00
2018-08-13T07:52:32.323Z,1380.00
2018-08-13T07:53:48.347Z,1352.00
2018-08-13T07:54:34.829Z,1348.00
2018-08-13T07:55:54.356Z,1400.00
2018-08-13T07:56:33.353Z,1512.00
2018-08-13T07:57:32.979Z,1576.00
2018-08-13T07:58:33.879Z,1524.00
2018-08-13T07:59:33.853Z,1380.00
2018-08-13T08:00:33.857Z,1224.00
2018-08-13T08:02:01.357Z,1140.00
2018-08-13T08:02:41.354Z,1152.00
2018-08-13T08:03:34.353Z,1140.00
2018-08-13T08:04:34.353Z,1100.00
2018-08-13T08:05:56.851Z,1080.00
2018-08-13T08:06:34.863Z,1104.00
2018-08-13T08:07:40.855Z,1116.00
2018-08-13T08:08:48.850Z,1124.00
2018-08-13T08:09:49.354Z,1136.00
2018-08-13T08:10:35.353Z,1168.00
2018-08-13T08:11:35.351Z,1232.00
2018-08-13T08:12:35.358Z,1304.00
2018-08-13T08:13:34.993Z,1336.00
2018-08-13T08:14:36.904Z,1388.00
2018-08-13T08:15:37.853Z,1436.00
2018-08-13T08:16:35.859Z,1452.00
2018-08-13T08:17:57.375Z,1504.00
2018-08-13T08:18:38.352Z,1560.00
2018-08-13T08:19:36.353Z,1620.00
2018-08-13T08:20:38.351Z,1640.00
2018-08-13T08:23:08.111Z,1652.00
2018-08-13T08:24:08.108Z,1744.00
2018-08-13T08:25:08.112Z,1840.00
2018-08-13T08:26:31.607Z,1912.00
2018-08-13T08:28:39.988Z,2040.00
2018-08-13T08:29:41.446Z,2052.00
2018-08-13T08:31:00.988Z,2100.00
2018-08-13T08:31:39.489Z,2128.00
2018-08-13T08:32:39.578Z,2032.00
2018-08-13T08:35:11.825Z,1796.00
2018-08-13T08:36:11.832Z,1940.00
2018-08-13T08:37:12.330Z,2096.00
2018-08-13T08:38:11.430Z,2324.00
2018-08-13T08:39:12.331Z,2688.00
2018-08-13T08:40:33.420Z,2984.00
2018-08-13T08:41:12.328Z,2996.00
2018-08-13T08:42:33.789Z,2828.00
2018-08-13T08:43:32.999Z,2620.00
2018-08-13T08:44:33.830Z,2420.00
2018-08-13T08:45:12.183Z,2228.00
2018-08-13T08:46:12.844Z,2204.00
2018-08-13T08:47:27.331Z,2280.00
2018-08-13T08:48:34.390Z,2292.00
2018-08-13T08:49:33.599Z,2344.00
2018-08-13T08:50:13.330Z,2220.00
2018-08-13T08:51:13.326Z,2152.00
2018-08-13T08:53:44.372Z,2612.00
2018-08-13T08:54:47.093Z,2692.00
2018-08-13T08:55:44.574Z,2824.00
2018-08-13T08:56:51.586Z,2940.00
2018-08-13T08:57:45.591Z,2784.00
2018-08-13T08:58:44.943Z,2576.00
2018-08-13T08:59:45.597Z,2112.00
2018-08-13T09:01:00.099Z,1836.00
2018-08-13T09:02:07.083Z,1860.00
2018-08-13T09:02:45.443Z,1968.00
2018-08-13T09:03:45.535Z,1836.00
2018-08-13T09:04:45.645Z,1656.00
2018-08-13T09:05:46.748Z,1720.00
2018-08-13T09:06:45.829Z,1940.00
2018-08-13T09:07:51.521Z,2120.00
2018-08-13T09:08:46.586Z,2496.00
2018-08-13T09:09:46.188Z,2880.00
2018-08-13T09:10:49.018Z,2972.00
2018-08-13T09:13:20.517Z,3436.00
2018-08-13T09:14:19.146Z,3600.00
2018-08-13T09:15:19.085Z,3556.00
2018-08-13T09:17:50.811Z,2816.00
2018-08-13T09:18:50.301Z,2572.00
2018-08-13T09:19:50.397Z,2428.00
2018-08-13T09:20:50.505Z,2176.00
2018-08-13T09:21:51.379Z,1900.00
2018-08-13T09:22:52.836Z,1784.00
2018-08-13T09:23:51.375Z,1732.00
2018-08-13T09:24:50.975Z,1712.00
2018-08-13T09:26:18.874Z,1696.00
2018-08-13T09:28:23.414Z,1816.00
2018-08-13T09:29:23.421Z,1976.00
2018-08-13T09:30:29.466Z,2208.00
2018-08-13T09:31:23.059Z,2432.00
2018-08-13T09:32:25.919Z,2576.00
2018-08-13T09:33:50.920Z,2632.00
2018-08-13T09:34:24.003Z,2628.00
2018-08-13T09:35:47.386Z,2516.00
2018-08-13T09:37:57.762Z,2136.00
2018-08-13T09:39:09.776Z,2036.00
2018-08-13T09:39:55.294Z,1956.00
2018-08-13T09:40:58.280Z,1896.00
2018-08-13T09:43:27.273Z,2124.00
2018-08-13T09:44:51.161Z,2160.00
2018-08-13T09:45:51.592Z,2420.00
2018-08-13T09:46:27.637Z,2768.00
2018-08-13T09:47:34.660Z,3100.00
2018-08-13T09:48:43.596Z,3044.00
2018-08-13T09:49:27.984Z,3296.00
2018-08-13T09:50:30.124Z,3516.00
2018-08-13T09:51:29.169Z,3556.00
2018-08-13T09:52:51.186Z,3472.00
2018-08-13T09:53:29.163Z,3364.00
2018-08-13T09:54:49.527Z,3384.00
2018-08-13T09:55:30.161Z,3412.00
2018-08-13T09:56:35.661Z,3368.00
2018-08-13T09:57:29.659Z,3132.00
2018-08-13T09:58:29.714Z,2940.00
2018-08-13T09:59:29.660Z,2772.00
2018-08-13T10:00:33.614Z,2536.00
2018-08-13T10:03:01.502Z,2276.00
2018-08-13T10:04:00.846Z,2352.00
2018-08-13T10:05:02.976Z,2340.00
2018-08-13T10:06:29.006Z,2324.00
2018-08-13T10:07:03.963Z,2284.00
2018-08-13T10:11:18.886Z,1640.00
2018-08-13T10:12:04.896Z,1452.00
2018-08-13T10:13:04.895Z,1528.00
2018-08-13T10:14:04.497Z,1812.00
2018-08-13T10:15:06.827Z,2480.00
2018-08-13T10:16:08.827Z,3032.00
2018-08-13T10:17:04.896Z,3224.00
2018-08-13T10:18:07.894Z,3044.00
2018-08-13T10:19:11.895Z,2756.00
2018-08-13T10:20:26.905Z,2456.00
2018-08-13T10:21:05.934Z,2196.00
2018-08-13T10:23:51.670Z,2744.00
2018-08-13T10:24:58.676Z,3224.00
2018-08-13T10:25:58.676Z,3496.00
2018-08-13T10:26:37.280Z,3776.00
2018-08-13T10:27:37.401Z,4308.00
2018-08-13T10:28:53.172Z,4740.00
2018-08-13T10:29:38.193Z,5016.00
2018-08-13T10:30:40.676Z,5344.00
2018-08-13T10:31:44.677Z,5748.00
2018-08-13T10:32:38.684Z,5840.00
2018-08-13T10:33:45.186Z,5392.00
2018-08-13T10:34:46.174Z,4872.00
2018-08-13T10:37:10.508Z,3992.00
2018-08-13T10:38:10.514Z,3780.00
2018-08-13T10:39:10.516Z,3472.00
2018-08-13T10:41:41.829Z,2864.00
2018-08-13T10:43:02.918Z,2676.00
2018-08-13T10:43:42.764Z,2740.00
2018-08-13T10:44:42.767Z,2768.00
2018-08-13T10:45:42.771Z,2832.00
2018-08-13T10:48:36.958Z,2496.00
2018-08-13T10:50:46.012Z,2212.00
2018-08-13T10:51:46.021Z,2192.00
2018-08-13T10:52:46.039Z,2280.00
2018-08-13T10:53:45.627Z,2476.00
2018-08-13T10:54:45.714Z,2484.00
2018-08-13T10:55:46.525Z,2160.00
2018-08-13T10:58:19.519Z,2256.00
2018-08-13T10:59:18.055Z,2316.00
2018-08-13T11:00:18.056Z,2528.00
2018-08-13T11:02:49.855Z,3132.00
2018-08-13T11:04:10.817Z,3212.00
2018-08-13T11:04:49.817Z,3236.00
2018-08-13T11:05:50.317Z,3240.00
2018-08-13T11:06:52.329Z,3240.00
2018-08-13T11:08:04.329Z,3272.00
2018-08-13T11:08:50.319Z,3376.00
2018-08-13T11:09:49.929Z,3452.00
2018-08-13T11:10:50.024Z,3524.00
2018-08-13T11:11:50.902Z,3692.00
2018-08-13T11:14:22.347Z,4296.00
2018-08-13T11:15:22.343Z,4500.00
2018-08-13T11:16:22.355Z,4632.00
2018-08-13T11:17:22.876Z,4700.00
2018-08-13T11:18:22.860Z,4728.00
2018-08-13T11:19:22.850Z,4748.00
2018-08-13T11:20:22.849Z,4744.00
2018-08-13T11:22:56.049Z,4536.00
2018-08-13T11:23:54.033Z,4452.00
2018-08-13T11:24:55.109Z,4356.00
2018-08-13T11:25:55.106Z,4252.00
2018-08-13T11:26:55.114Z,4160.00
2018-08-13T11:27:56.039Z,4112.00
2018-08-13T11:28:55.106Z,4012.00
2018-08-13T11:29:55.613Z,3972.00
2018-08-13T11:31:09.643Z,3944.00
2018-08-13T11:31:55.024Z,3916.00
2018-08-13T11:33:03.081Z,3864.00
2018-08-13T11:33:57.564Z,3748.00
2018-08-13T11:34:55.360Z,3612.00
2018-08-13T11:36:00.538Z,3496.00
2018-08-13T11:36:55.472Z,3428.00
2018-08-13T11:37:56.106Z,3420.00
2018-08-13T11:40:27.866Z,3540.00
2018-08-13T11:41:27.271Z,3596.00
2018-08-13T11:42:28.371Z,3640.00
2018-08-13T11:43:42.374Z,3720.00
2018-08-13T11:44:28.384Z,3848.00
2018-08-13T11:45:33.306Z,4008.00
2018-08-13T11:46:32.306Z,4132.00
2018-08-13T11:47:42.874Z,4200.00
2018-08-13T11:48:28.894Z,4240.00
2018-08-13T11:49:30.316Z,4212.00
2018-08-13T11:50:28.892Z,4140.00
2018-08-13T11:51:52.374Z,4040.00
2018-08-13T11:55:31.976Z,3672.00
2018-08-13T11:56:32.707Z,3588.00
2018-08-13T11:57:32.170Z,3504.00
2018-08-13T11:58:34.676Z,3404.00
2018-08-13T11:59:47.197Z,3308.00
2018-08-13T12:00:55.206Z,3224.00
2018-08-13T12:01:35.198Z,3148.00
2018-08-13T12:02:32.806Z,3088.00
2018-08-13T12:03:33.700Z,3052.00
2018-08-13T12:04:33.712Z,3080.00
2018-08-13T12:05:54.201Z,3208.00
2018-08-13T12:06:40.197Z,3420.00
2018-08-13T12:07:40.198Z,3680.00
2018-08-13T12:08:55.219Z,3888.00
2018-08-13T12:09:34.197Z,3964.00
2018-08-13T12:10:36.699Z,3860.00
2018-08-13T12:11:54.913Z,3768.00
2018-08-13T12:12:38.634Z,3636.00
2018-08-13T12:13:36.675Z,3696.00
2018-08-13T12:14:41.203Z,3884.00
2018-08-13T12:18:44.348Z,3824.00
2018-08-13T12:20:05.355Z,3632.00
2018-08-13T12:20:52.353Z,3512.00
2018-08-13T12:21:44.846Z,3576.00
2018-08-13T12:22:38.076Z,3756.00
2018-08-13T12:23:38.849Z,3828.00
2018-08-13T12:24:38.849Z,3664.00
2018-08-13T12:27:10.562Z,2744.00
2018-08-13T12:28:10.604Z,3284.00
2018-08-13T12:29:11.106Z,4204.00
2018-08-13T12:30:11.106Z,4904.00
2018-08-13T12:31:33.541Z,4748.00
2018-08-13T12:32:11.113Z,5648.00
2018-08-13T12:33:32.606Z,6416.00
2018-08-13T12:34:10.832Z,6556.00
2018-08-13T12:35:11.649Z,6948.00
2018-08-13T12:36:11.085Z,8048.00
2018-08-13T12:37:12.107Z,10760.00
2018-08-13T12:38:11.336Z,12164.00
2018-08-13T12:39:12.106Z,35552.00
2018-08-13T12:40:12.107Z,12796.00
2018-08-13T12:41:12.697Z,14608.00
2018-08-13T12:42:11.894Z,20992.00
2018-08-13T12:43:12.607Z,43808.00
2018-08-13T12:44:12.607Z,12196.00
2018-08-13T12:45:13.109Z,11484.00
2018-08-13T12:46:14.116Z,11088.00
2018-08-13T12:48:44.630Z,23648.00
2018-08-13T12:49:49.069Z,54048.00
2018-08-13T12:50:46.638Z,12384.00
2018-08-13T12:51:59.136Z,10332.00
2018-08-13T12:52:45.143Z,12020.00
2018-08-13T12:55:16.658Z,11700.00
2018-08-13T12:57:48.197Z,10744.00
2018-08-13T12:58:48.202Z,7068.00
2018-08-13T12:59:47.682Z,9296.00
2018-08-13T13:00:54.702Z,11448.00
2018-08-13T13:02:09.702Z,8196.00
2018-08-13T13:03:09.697Z,7656.00
2018-08-13T13:03:50.702Z,6552.00
2018-08-13T13:04:48.306Z,7344.00
2018-08-13T13:05:55.203Z,8384.00
2018-08-13T13:06:48.590Z,5400.00
2018-08-13T13:08:10.203Z,5512.00
2018-08-13T13:10:26.973Z,5360.00
2018-08-13T13:11:41.307Z,5812.00
2018-08-13T13:12:44.915Z,5988.00
2018-08-13T13:13:42.481Z,4924.00
2018-08-13T13:14:21.481Z,3884.00
2018-08-13T13:16:52.985Z,5224.00
2018-08-13T13:17:52.996Z,5776.00
2018-08-13T13:18:52.990Z,6052.00
2018-08-13T13:19:55.493Z,6056.00
2018-08-13T13:20:52.726Z,6836.00
2018-08-13T13:21:53.493Z,7040.00
2018-08-13T13:22:53.492Z,6984.00
2018-08-13T13:23:53.124Z,6636.00
2018-08-13T13:24:58.425Z,6368.00
2018-08-13T13:25:54.047Z,6988.00
2018-08-13T13:26:53.990Z,7040.00
2018-08-13T13:28:17.492Z,6896.00
2018-08-13T13:28:53.745Z,5500.00
2018-08-13T13:29:53.841Z,5864.00
2018-08-13T13:30:53.951Z,12308.00
2018-08-13T13:32:00.998Z,7860.00
2018-08-13T13:32:57.006Z,8044.00
2018-08-13T13:33:55.000Z,5948.00
2018-08-13T13:34:54.492Z,5500.00
2018-08-13T13:35:55.494Z,4276.00
2018-08-13T13:36:54.719Z,3604.00
2018-08-13T13:38:17.432Z,3468.00
2018-08-13T13:38:55.494Z,4384.00
2018-08-13T13:39:55.106Z,4924.00
2018-08-13T13:40:56.000Z,5804.00
2018-08-13T13:41:55.993Z,5500.00
2018-08-13T13:42:55.993Z,5732.00
2018-08-13T13:45:41.759Z,10468.00
2018-08-13T13:46:27.139Z,20544.00
2018-08-13T13:47:27.768Z,17696.00